sensor_id;sensor_type;location;lat;lon;timestamp;P1;durP1;ratioP1;P2;durP2;ratioP2
45762;SDS011;37512;52.408;13.356;2024-03-08T00:03:35;32.08;;;18.02;;
45762;SDS011;37512;52.408;13.356;2024-03-08T00:07:37;36.53;;;17.80;;
45762;SDS011;37512;52.408;13.356;2024-03-08T00:11:40;36.85;;;18.63;;
45762;SDS011;37512;52.408;13.356;2024-03-08T00:15:42;35.55;;;18.35;;
45762;SDS011;37512;52.408;13.356;2024-03-08T00:19:43;40.45;;;18.05;;
45762;SDS011;37512;52.408;13.356;2024-03-08T00:23:45;35.88;;;17.80;;
45762;SDS011;37512;52.408;13.356;2024-03-08T00:27:47;36.35;;;18.50;;
45762;SDS011;37512;52.408;13.356;2024-03-08T00:31:50;42.28;;;19.55;;
45762;SDS011;37512;52.408;13.356;2024-03-08T00:35:52;36.05;;;18.17;;
45762;SDS011;37512;52.408;13.356;2024-03-08T00:39:57;33.83;;;18.88;;
45762;SDS011;37512;52.408;13.356;2024-03-08T00:43:59;29.50;;;17.13;;
45762;SDS011;37512;52.408;13.356;2024-03-08T00:48:00;33.45;;;17.52;;
45762;SDS011;37512;52.408;13.356;2024-03-08T00:52:02;30.92;;;17.45;;
45762;SDS011;37512;52.408;13.356;2024-03-08T00:56:04;30.90;;;17.42;;
45762;SDS011;37512;52.408;13.356;2024-03-08T01:00:06;33.92;;;17.25;;
45762;SDS011;37512;52.408;13.356;2024-03-08T01:04:13;34.60;;;16.80;;
45762;SDS011;37512;52.408;13.356;2024-03-08T01:08:15;36.15;;;18.30;;
45762;SDS011;37512;52.408;13.356;2024-03-08T01:12:16;32.03;;;17.65;;
45762;SDS011;37512;52.408;13.356;2024-03-08T01:16:18;29.33;;;17.25;;
45762;SDS011;37512;52.408;13.356;2024-03-08T01:20:21;36.65;;;16.92;;
45762;SDS011;37512;52.408;13.356;2024-03-08T01:24:22;44.80;;;17.17;;
45762;SDS011;37512;52.408;13.356;2024-03-08T01:28:24;33.60;;;17.00;;
45762;SDS011;37512;52.408;13.356;2024-03-08T01:32:26;31.35;;;16.98;;
45762;SDS011;37512;52.408;13.356;2024-03-08T01:36:29;34.40;;;16.63;;
45762;SDS011;37512;52.408;13.356;2024-03-08T01:40:30;31.63;;;16.23;;
45762;SDS011;37512;52.408;13.356;2024-03-08T01:44:32;30.33;;;16.05;;
45762;SDS011;37512;52.408;13.356;2024-03-08T01:48:33;37.05;;;18.10;;
45762;SDS011;37512;52.408;13.356;2024-03-08T01:52:35;36.60;;;18.15;;
45762;SDS011;37512;52.408;13.356;2024-03-08T01:56:37;41.05;;;19.50;;
45762;SDS011;37512;52.408;13.356;2024-03-08T02:00:40;36.53;;;17.58;;
45762;SDS011;37512;52.408;13.356;2024-03-08T02:04:46;34.42;;;17.00;;
45762;SDS011;37512;52.408;13.356;2024-03-08T02:08:47;33.22;;;17.60;;
45762;SDS011;37512;52.408;13.356;2024-03-08T02:12:50;34.17;;;17.77;;
45762;SDS011;37512;52.408;13.356;2024-03-08T02:16:52;32.25;;;16.95;;
45762;SDS011;37512;52.408;13.356;2024-03-08T02:20:56;35.97;;;18.48;;
45762;SDS011;37512;52.408;13.356;2024-03-08T02:24:59;34.22;;;18.02;;
45762;SDS011;37512;52.408;13.356;2024-03-08T02:29:04;32.47;;;17.00;;
45762;SDS011;37512;52.408;13.356;2024-03-08T02:33:06;32.53;;;18.85;;
45762;SDS011;37512;52.408;13.356;2024-03-08T02:37:10;37.45;;;17.23;;
45762;SDS011;37512;52.408;13.356;2024-03-08T02:41:12;37.05;;;18.23;;
45762;SDS011;37512;52.408;13.356;2024-03-08T02:45:13;36.75;;;18.17;;
45762;SDS011;37512;52.408;13.356;2024-03-08T02:49:15;37.58;;;17.40;;
45762;SDS011;37512;52.408;13.356;2024-03-08T02:53:17;36.28;;;18.60;;
45762;SDS011;37512;52.408;13.356;2024-03-08T02:57:20;33.83;;;17.40;;
45762;SDS011;37512;52.408;13.356;2024-03-08T03:01:21;35.67;;;18.40;;
45762;SDS011;37512;52.408;13.356;2024-03-08T03:05:24;39.83;;;16.98;;
45762;SDS011;37512;52.408;13.356;2024-03-08T03:09:26;35.78;;;18.38;;
45762;SDS011;37512;52.408;13.356;2024-03-08T03:13:29;34.28;;;17.13;;
45762;SDS011;37512;52.408;13.356;2024-03-08T03:17:30;36.97;;;17.85;;
45762;SDS011;37512;52.408;13.356;2024-03-08T03:21:32;35.50;;;18.98;;
45762;SDS011;37512;52.408;13.356;2024-03-08T03:25:37;34.47;;;17.60;;
45762;SDS011;37512;52.408;13.356;2024-03-08T03:29:40;32.97;;;17.50;;
45762;SDS011;37512;52.408;13.356;2024-03-08T03:33:50;30.25;;;17.17;;
45762;SDS011;37512;52.408;13.356;2024-03-08T03:37:53;36.17;;;18.33;;
45762;SDS011;37512;52.408;13.356;2024-03-08T03:42:12;36.35;;;17.73;;
45762;SDS011;37512;52.408;13.356;2024-03-08T03:46:13;35.88;;;17.48;;
45762;SDS011;37512;52.408;13.356;2024-03-08T03:50:15;34.33;;;17.83;;
45762;SDS011;37512;52.408;13.356;2024-03-08T03:54:16;38.17;;;17.70;;
45762;SDS011;37512;52.408;13.356;2024-03-08T03:58:18;35.15;;;17.23;;
45762;SDS011;37512;52.408;13.356;2024-03-08T04:02:25;37.55;;;19.15;;
45762;SDS011;37512;52.408;13.356;2024-03-08T04:06:27;35.42;;;17.05;;
45762;SDS011;37512;52.408;13.356;2024-03-08T04:10:29;38.53;;;17.88;;
45762;SDS011;37512;52.408;13.356;2024-03-08T04:14:31;43.40;;;19.02;;
45762;SDS011;37512;52.408;13.356;2024-03-08T04:18:33;41.63;;;19.15;;
45762;SDS011;37512;52.408;13.356;2024-03-08T04:22:37;38.80;;;18.73;;
45762;SDS011;37512;52.408;13.356;2024-03-08T04:26:40;39.38;;;18.85;;
45762;SDS011;37512;52.408;13.356;2024-03-08T04:30:42;39.58;;;18.90;;
45762;SDS011;37512;52.408;13.356;2024-03-08T04:34:44;43.13;;;17.83;;
45762;SDS011;37512;52.408;13.356;2024-03-08T04:38:47;36.85;;;19.23;;
45762;SDS011;37512;52.408;13.356;2024-03-08T04:42:48;38.90;;;17.50;;
45762;SDS011;37512;52.408;13.356;2024-03-08T04:46:52;41.47;;;19.65;;
45762;SDS011;37512;52.408;13.356;2024-03-08T04:50:54;34.60;;;18.70;;
45762;SDS011;37512;52.408;13.356;2024-03-08T04:54:57;45.70;;;20.13;;
45762;SDS011;37512;52.408;13.356;2024-03-08T04:58:58;38.75;;;18.40;;
45762;SDS011;37512;52.408;13.356;2024-03-08T05:03:00;35.78;;;18.80;;
45762;SDS011;37512;52.408;13.356;2024-03-08T05:07:02;41.50;;;18.83;;
45762;SDS011;37512;52.408;13.356;2024-03-08T05:11:03;38.38;;;19.70;;
45762;SDS011;37512;52.408;13.356;2024-03-08T05:15:08;44.60;;;20.02;;
45762;SDS011;37512;52.408;13.356;2024-03-08T05:19:10;38.47;;;19.20;;
45762;SDS011;37512;52.408;13.356;2024-03-08T05:23:11;43.53;;;19.52;;
45762;SDS011;37512;52.408;13.356;2024-03-08T05:27:13;37.92;;;19.98;;
45762;SDS011;37512;52.408;13.356;2024-03-08T05:31:21;37.53;;;19.15;;
45762;SDS011;37512;52.408;13.356;2024-03-08T05:35:25;42.20;;;19.35;;
45762;SDS011;37512;52.408;13.356;2024-03-08T05:39:27;40.03;;;20.50;;
45762;SDS011;37512;52.408;13.356;2024-03-08T05:43:29;41.90;;;20.05;;
45762;SDS011;37512;52.408;13.356;2024-03-08T05:47:30;37.80;;;19.05;;
45762;SDS011;37512;52.408;13.356;2024-03-08T05:51:34;43.20;;;19.80;;
45762;SDS011;37512;52.408;13.356;2024-03-08T05:55:37;44.45;;;20.20;;
45762;SDS011;37512;52.408;13.356;2024-03-08T05:59:39;45.50;;;19.75;;
45762;SDS011;37512;52.408;13.356;2024-03-08T06:03:41;44.35;;;20.10;;
45762;SDS011;37512;52.408;13.356;2024-03-08T06:07:46;36.47;;;20.20;;
45762;SDS011;37512;52.408;13.356;2024-03-08T06:11:47;45.15;;;22.52;;
45762;SDS011;37512;52.408;13.356;2024-03-08T06:15:50;43.40;;;21.55;;
45762;SDS011;37512;52.408;13.356;2024-03-08T06:19:54;45.67;;;20.92;;
45762;SDS011;37512;52.408;13.356;2024-03-08T06:23:56;45.55;;;21.88;;
45762;SDS011;37512;52.408;13.356;2024-03-08T06:27:59;43.17;;;21.83;;
45762;SDS011;37512;52.408;13.356;2024-03-08T06:32:00;47.05;;;22.60;;
45762;SDS011;37512;52.408;13.356;2024-03-08T06:36:02;43.70;;;21.65;;
45762;SDS011;37512;52.408;13.356;2024-03-08T06:40:08;45.22;;;23.45;;
45762;SDS011;37512;52.408;13.356;2024-03-08T06:44:16;45.47;;;21.95;;
45762;SDS011;37512;52.408;13.356;2024-03-08T06:48:17;46.25;;;22.80;;
45762;SDS011;37512;52.408;13.356;2024-03-08T06:52:21;43.28;;;21.95;;
45762;SDS011;37512;52.408;13.356;2024-03-08T06:56:23;45.25;;;22.83;;
45762;SDS011;37512;52.408;13.356;2024-03-08T07:00:25;37.00;;;20.58;;
45762;SDS011;37512;52.408;13.356;2024-03-08T07:04:30;45.63;;;22.67;;
45762;SDS011;37512;52.408;13.356;2024-03-08T07:08:32;42.80;;;21.13;;
45762;SDS011;37512;52.408;13.356;2024-03-08T07:12:34;42.30;;;20.42;;
45762;SDS011;37512;52.408;13.356;2024-03-08T07:16:35;40.03;;;20.33;;
45762;SDS011;37512;52.408;13.356;2024-03-08T07:20:37;41.65;;;21.70;;
45762;SDS011;37512;52.408;13.356;2024-03-08T07:24:39;44.72;;;22.50;;
45762;SDS011;37512;52.408;13.356;2024-03-08T07:28:59;42.65;;;21.50;;
45762;SDS011;37512;52.408;13.356;2024-03-08T07:33:02;45.78;;;20.00;;
45762;SDS011;37512;52.408;13.356;2024-03-08T07:37:04;41.80;;;22.60;;
45762;SDS011;37512;52.408;13.356;2024-03-08T07:41:08;38.92;;;18.83;;
45762;SDS011;37512;52.408;13.356;2024-03-08T07:45:11;36.83;;;19.65;;
45762;SDS011;37512;52.408;13.356;2024-03-08T07:49:14;38.22;;;17.20;;
45762;SDS011;37512;52.408;13.356;2024-03-08T07:53:16;36.85;;;19.30;;
45762;SDS011;37512;52.408;13.356;2024-03-08T07:57:18;39.33;;;19.05;;
45762;SDS011;37512;52.408;13.356;2024-03-08T08:01:19;40.33;;;19.02;;
45762;SDS011;37512;52.408;13.356;2024-03-08T08:05:21;35.88;;;18.50;;
45762;SDS011;37512;52.408;13.356;2024-03-08T08:09:23;39.97;;;18.65;;
45762;SDS011;37512;52.408;13.356;2024-03-08T08:13:30;39.67;;;18.75;;
45762;SDS011;37512;52.408;13.356;2024-03-08T08:17:33;31.90;;;17.45;;
45762;SDS011;37512;52.408;13.356;2024-03-08T08:21:36;33.45;;;17.33;;
45762;SDS011;37512;52.408;13.356;2024-03-08T08:25:38;36.47;;;17.58;;
45762;SDS011;37512;52.408;13.356;2024-03-08T08:29:40;33.65;;;16.85;;
45762;SDS011;37512;52.408;13.356;2024-03-08T08:33:41;32.58;;;16.80;;
45762;SDS011;37512;52.408;13.356;2024-03-08T08:37:43;28.13;;;15.23;;
45762;SDS011;37512;52.408;13.356;2024-03-08T08:41:45;32.47;;;17.60;;
45762;SDS011;37512;52.408;13.356;2024-03-08T08:45:47;31.40;;;16.40;;
45762;SDS011;37512;52.408;13.356;2024-03-08T08:49:51;32.20;;;16.10;;
45762;SDS011;37512;52.408;13.356;2024-03-08T08:53:53;29.50;;;16.83;;
45762;SDS011;37512;52.408;13.356;2024-03-08T08:57:54;30.60;;;14.73;;
45762;SDS011;37512;52.408;13.356;2024-03-08T09:01:59;27.30;;;14.55;;
45762;SDS011;37512;52.408;13.356;2024-03-08T09:06:01;27.65;;;16.17;;
45762;SDS011;37512;52.408;13.356;2024-03-08T09:10:04;31.42;;;16.63;;
45762;SDS011;37512;52.408;13.356;2024-03-08T09:14:09;28.20;;;15.65;;
45762;SDS011;37512;52.408;13.356;2024-03-08T09:18:13;27.58;;;16.20;;
45762;SDS011;37512;52.408;13.356;2024-03-08T09:22:15;29.60;;;16.50;;
45762;SDS011;37512;52.408;13.356;2024-03-08T09:26:17;24.60;;;12.27;;
45762;SDS011;37512;52.408;13.356;2024-03-08T09:30:29;29.60;;;15.38;;
45762;SDS011;37512;52.408;13.356;2024-03-08T09:34:31;26.13;;;15.68;;
45762;SDS011;37512;52.408;13.356;2024-03-08T09:38:38;28.80;;;15.98;;
45762;SDS011;37512;52.408;13.356;2024-03-08T09:42:51;28.38;;;14.77;;
45762;SDS011;37512;52.408;13.356;2024-03-08T09:46:55;28.58;;;16.42;;
45762;SDS011;37512;52.408;13.356;2024-03-08T09:50:59;25.63;;;15.23;;
45762;SDS011;37512;52.408;13.356;2024-03-08T09:55:02;35.50;;;19.73;;
45762;SDS011;37512;52.408;13.356;2024-03-08T09:59:05;24.92;;;13.25;;
45762;SDS011;37512;52.408;13.356;2024-03-08T10:03:13;27.92;;;13.77;;
45762;SDS011;37512;52.408;13.356;2024-03-08T10:07:17;24.40;;;13.73;;
45762;SDS011;37512;52.408;13.356;2024-03-08T10:11:19;26.15;;;13.68;;
45762;SDS011;37512;52.408;13.356;2024-03-08T10:15:21;28.63;;;13.50;;
45762;SDS011;37512;52.408;13.356;2024-03-08T10:19:22;28.83;;;15.23;;
45762;SDS011;37512;52.408;13.356;2024-03-08T10:23:27;20.90;;;11.85;;
45762;SDS011;37512;52.408;13.356;2024-03-08T10:27:29;15.65;;;9.98;;
45762;SDS011;37512;52.408;13.356;2024-03-08T10:31:32;22.58;;;12.43;;
45762;SDS011;37512;52.408;13.356;2024-03-08T10:35:34;21.10;;;13.57;;
45762;SDS011;37512;52.408;13.356;2024-03-08T10:39:36;18.30;;;11.38;;
45762;SDS011;37512;52.408;13.356;2024-03-08T10:48:24;46.00;;;30.45;;
45762;SDS011;37512;52.408;13.356;2024-03-08T10:52:39;22.67;;;12.52;;
45762;SDS011;37512;52.408;13.356;2024-03-08T10:56:41;22.05;;;12.57;;
45762;SDS011;37512;52.408;13.356;2024-03-08T11:00:43;23.75;;;13.05;;
45762;SDS011;37512;52.408;13.356;2024-03-08T11:04:48;24.35;;;12.23;;
45762;SDS011;37512;52.408;13.356;2024-03-08T11:08:52;19.45;;;12.40;;
45762;SDS011;37512;52.408;13.356;2024-03-08T11:12:56;21.58;;;12.32;;
45762;SDS011;37512;52.408;13.356;2024-03-08T11:17:00;22.85;;;11.32;;
45762;SDS011;37512;52.408;13.356;2024-03-08T11:21:08;20.08;;;12.30;;
45762;SDS011;37512;52.408;13.356;2024-03-08T11:29:43;23.50;;;12.93;;
45762;SDS011;37512;52.408;13.356;2024-03-08T11:33:45;18.35;;;12.07;;
45762;SDS011;37512;52.408;13.356;2024-03-08T11:37:48;20.38;;;12.07;;
45762;SDS011;37512;52.408;13.356;2024-03-08T11:41:50;16.05;;;10.30;;
45762;SDS011;37512;52.408;13.356;2024-03-08T11:46:07;18.90;;;10.77;;
45762;SDS011;37512;52.408;13.356;2024-03-08T11:50:10;20.58;;;11.77;;
45762;SDS011;37512;52.408;13.356;2024-03-08T11:54:12;21.98;;;10.95;;
45762;SDS011;37512;52.408;13.356;2024-03-08T11:58:14;14.60;;;8.77;;
45762;SDS011;37512;52.408;13.356;2024-03-08T12:02:17;16.25;;;9.55;;
45762;SDS011;37512;52.408;13.356;2024-03-08T12:06:20;17.30;;;9.20;;
45762;SDS011;37512;52.408;13.356;2024-03-08T12:10:22;14.20;;;9.10;;
45762;SDS011;37512;52.408;13.356;2024-03-08T12:14:24;16.92;;;9.43;;
45762;SDS011;37512;52.408;13.356;2024-03-08T12:18:26;17.15;;;10.50;;
45762;SDS011;37512;52.408;13.356;2024-03-08T12:22:30;14.00;;;9.23;;
45762;SDS011;37512;52.408;13.356;2024-03-08T12:26:31;16.35;;;10.48;;
45762;SDS011;37512;52.408;13.356;2024-03-08T12:30:33;16.38;;;8.35;;
45762;SDS011;37512;52.408;13.356;2024-03-08T12:34:35;14.88;;;8.98;;
45762;SDS011;37512;52.408;13.356;2024-03-08T12:38:37;17.25;;;10.00;;
45762;SDS011;37512;52.408;13.356;2024-03-08T12:42:39;15.88;;;9.45;;
45762;SDS011;37512;52.408;13.356;2024-03-08T12:46:40;16.20;;;8.70;;
45762;SDS011;37512;52.408;13.356;2024-03-08T12:50:42;20.15;;;11.23;;
45762;SDS011;37512;52.408;13.356;2024-03-08T12:54:48;13.93;;;8.98;;
45762;SDS011;37512;52.408;13.356;2024-03-08T12:58:50;15.73;;;9.20;;
45762;SDS011;37512;52.408;13.356;2024-03-08T13:02:54;12.38;;;7.57;;
45762;SDS011;37512;52.408;13.356;2024-03-08T13:06:56;16.45;;;9.10;;
45762;SDS011;37512;52.408;13.356;2024-03-08T13:10:58;15.93;;;9.77;;
45762;SDS011;37512;52.408;13.356;2024-03-08T13:15:00;16.70;;;9.55;;
45762;SDS011;37512;52.408;13.356;2024-03-08T13:19:01;28.00;;;16.92;;
45762;SDS011;37512;52.408;13.356;2024-03-08T13:23:04;16.83;;;10.13;;
45762;SDS011;37512;52.408;13.356;2024-03-08T13:27:09;17.55;;;10.00;;
45762;SDS011;37512;52.408;13.356;2024-03-08T13:31:25;16.87;;;9.97;;
45762;SDS011;37512;52.408;13.356;2024-03-08T13:35:27;19.17;;;10.75;;
45762;SDS011;37512;52.408;13.356;2024-03-08T13:39:32;13.95;;;9.15;;
45762;SDS011;37512;52.408;13.356;2024-03-08T13:43:42;16.88;;;10.23;;
45762;SDS011;37512;52.408;13.356;2024-03-08T13:47:51;26.00;;;15.35;;
45762;SDS011;37512;52.408;13.356;2024-03-08T13:51:55;16.60;;;10.43;;
45762;SDS011;37512;52.408;13.356;2024-03-08T13:56:00;17.13;;;9.13;;
45762;SDS011;37512;52.408;13.356;2024-03-08T14:00:07;14.38;;;9.32;;
45762;SDS011;37512;52.408;13.356;2024-03-08T14:04:10;15.48;;;8.88;;
45762;SDS011;37512;52.408;13.356;2024-03-08T14:08:17;13.77;;;8.88;;
45762;SDS011;37512;52.408;13.356;2024-03-08T14:12:19;15.55;;;8.88;;
45762;SDS011;37512;52.408;13.356;2024-03-08T14:16:22;19.15;;;8.43;;
45762;SDS011;37512;52.408;13.356;2024-03-08T14:20:24;17.42;;;11.38;;
45762;SDS011;37512;52.408;13.356;2024-03-08T14:24:27;20.77;;;11.55;;
45762;SDS011;37512;52.408;13.356;2024-03-08T14:28:29;18.35;;;9.35;;
45762;SDS011;37512;52.408;13.356;2024-03-08T14:32:30;13.40;;;8.23;;
45762;SDS011;37512;52.408;13.356;2024-03-08T14:36:32;14.52;;;8.65;;
45762;SDS011;37512;52.408;13.356;2024-03-08T14:40:34;18.63;;;8.32;;
45762;SDS011;37512;52.408;13.356;2024-03-08T14:44:38;17.77;;;9.52;;
45762;SDS011;37512;52.408;13.356;2024-03-08T14:48:39;17.30;;;8.73;;
45762;SDS011;37512;52.408;13.356;2024-03-08T14:52:42;12.38;;;7.70;;
45762;SDS011;37512;52.408;13.356;2024-03-08T14:56:44;17.58;;;10.85;;
45762;SDS011;37512;52.408;13.356;2024-03-08T15:00:46;16.67;;;11.02;;
45762;SDS011;37512;52.408;13.356;2024-03-08T15:04:51;14.57;;;9.60;;
45762;SDS011;37512;52.408;13.356;2024-03-08T15:08:59;16.40;;;10.25;;
45762;SDS011;37512;52.408;13.356;2024-03-08T15:13:00;15.70;;;10.32;;
45762;SDS011;37512;52.408;13.356;2024-03-08T15:17:03;18.00;;;10.40;;
45762;SDS011;37512;52.408;13.356;2024-03-08T15:21:12;15.48;;;9.63;;
45762;SDS011;37512;52.408;13.356;2024-03-08T15:25:19;14.75;;;7.80;;
45762;SDS011;37512;52.408;13.356;2024-03-08T15:33:30;15.02;;;8.40;;
45762;SDS011;37512;52.408;13.356;2024-03-08T15:37:32;15.05;;;7.90;;
45762;SDS011;37512;52.408;13.356;2024-03-08T15:41:41;15.32;;;8.18;;
45762;SDS011;37512;52.408;13.356;2024-03-08T15:45:45;13.57;;;7.80;;
45762;SDS011;37512;52.408;13.356;2024-03-08T15:49:50;14.20;;;6.95;;
45762;SDS011;37512;52.408;13.356;2024-03-08T15:53:52;18.25;;;7.57;;
45762;SDS011;37512;52.408;13.356;2024-03-08T15:57:57;14.48;;;7.50;;
45762;SDS011;37512;52.408;13.356;2024-03-08T16:02:01;15.15;;;8.38;;
45762;SDS011;37512;52.408;13.356;2024-03-08T16:06:03;12.75;;;7.30;;
45762;SDS011;37512;52.408;13.356;2024-03-08T16:10:07;12.95;;;7.35;;
45762;SDS011;37512;52.408;13.356;2024-03-08T16:14:10;12.38;;;7.68;;
45762;SDS011;37512;52.408;13.356;2024-03-08T16:18:12;15.40;;;8.05;;
45762;SDS011;37512;52.408;13.356;2024-03-08T16:22:14;14.13;;;8.23;;
45762;SDS011;37512;52.408;13.356;2024-03-08T16:26:16;14.63;;;8.52;;
45762;SDS011;37512;52.408;13.356;2024-03-08T16:30:19;15.02;;;8.73;;
45762;SDS011;37512;52.408;13.356;2024-03-08T16:34:21;18.73;;;10.18;;
45762;SDS011;37512;52.408;13.356;2024-03-08T16:38:23;18.80;;;8.90;;
45762;SDS011;37512;52.408;13.356;2024-03-08T16:42:25;16.70;;;9.60;;
45762;SDS011;37512;52.408;13.356;2024-03-08T16:46:27;16.05;;;8.80;;
45762;SDS011;37512;52.408;13.356;2024-03-08T16:50:35;15.55;;;8.73;;
45762;SDS011;37512;52.408;13.356;2024-03-08T16:54:37;14.55;;;8.52;;
45762;SDS011;37512;52.408;13.356;2024-03-08T16:58:52;20.33;;;9.98;;
45762;SDS011;37512;52.408;13.356;2024-03-08T17:02:55;16.42;;;8.98;;
45762;SDS011;37512;52.408;13.356;2024-03-08T17:07:00;18.00;;;8.90;;
45762;SDS011;37512;52.408;13.356;2024-03-08T17:11:02;18.60;;;9.57;;
45762;SDS011;37512;52.408;13.356;2024-03-08T17:15:04;19.40;;;10.05;;
45762;SDS011;37512;52.408;13.356;2024-03-08T17:19:06;20.30;;;10.60;;
45762;SDS011;37512;52.408;13.356;2024-03-08T17:23:09;19.02;;;10.95;;
45762;SDS011;37512;52.408;13.356;2024-03-08T17:27:15;18.33;;;10.80;;
45762;SDS011;37512;52.408;13.356;2024-03-08T17:31:17;23.00;;;10.77;;
45762;SDS011;37512;52.408;13.356;2024-03-08T17:35:19;20.38;;;11.55;;
45762;SDS011;37512;52.408;13.356;2024-03-08T17:39:21;20.63;;;10.07;;
45762;SDS011;37512;52.408;13.356;2024-03-08T17:43:27;17.77;;;10.45;;
45762;SDS011;37512;52.408;13.356;2024-03-08T17:47:28;21.30;;;11.18;;
45762;SDS011;37512;52.408;13.356;2024-03-08T17:51:30;29.52;;;12.60;;
45762;SDS011;37512;52.408;13.356;2024-03-08T17:55:32;22.58;;;11.40;;
45762;SDS011;37512;52.408;13.356;2024-03-08T17:59:33;22.35;;;11.65;;
45762;SDS011;37512;52.408;13.356;2024-03-08T18:03:36;20.38;;;11.63;;
45762;SDS011;37512;52.408;13.356;2024-03-08T18:07:37;22.05;;;11.52;;
45762;SDS011;37512;52.408;13.356;2024-03-08T18:11:39;21.13;;;10.63;;
45762;SDS011;37512;52.408;13.356;2024-03-08T18:15:41;23.17;;;11.55;;
45762;SDS011;37512;52.408;13.356;2024-03-08T18:19:45;21.13;;;11.48;;
45762;SDS011;37512;52.408;13.356;2024-03-08T18:23:48;19.92;;;12.05;;
45762;SDS011;37512;52.408;13.356;2024-03-08T18:27:50;21.65;;;11.18;;
45762;SDS011;37512;52.408;13.356;2024-03-08T18:31:52;18.42;;;10.88;;
45762;SDS011;37512;52.408;13.356;2024-03-08T18:35:53;20.52;;;11.20;;
45762;SDS011;37512;52.408;13.356;2024-03-08T18:39:55;19.92;;;12.00;;
45762;SDS011;37512;52.408;13.356;2024-03-08T18:43:57;22.23;;;12.10;;
45762;SDS011;37512;52.408;13.356;2024-03-08T18:47:59;24.50;;;13.07;;
45762;SDS011;37512;52.408;13.356;2024-03-08T18:52:01;18.85;;;11.30;;
45762;SDS011;37512;52.408;13.356;2024-03-08T18:56:04;24.75;;;12.43;;
45762;SDS011;37512;52.408;13.356;2024-03-08T19:00:07;19.83;;;11.00;;
45762;SDS011;37512;52.408;13.356;2024-03-08T19:04:29;24.88;;;13.50;;
45762;SDS011;37512;52.408;13.356;2024-03-08T19:08:31;22.23;;;12.00;;
45762;SDS011;37512;52.408;13.356;2024-03-08T19:12:34;31.10;;;14.00;;
45762;SDS011;37512;52.408;13.356;2024-03-08T19:16:35;22.98;;;11.82;;
45762;SDS011;37512;52.408;13.356;2024-03-08T19:20:42;25.33;;;12.93;;
45762;SDS011;37512;52.408;13.356;2024-03-08T19:24:44;24.70;;;12.85;;
45762;SDS011;37512;52.408;13.356;2024-03-08T19:28:46;20.98;;;11.93;;
45762;SDS011;37512;52.408;13.356;2024-03-08T19:32:48;16.83;;;10.25;;
45762;SDS011;37512;52.408;13.356;2024-03-08T19:36:54;23.92;;;12.25;;
45762;SDS011;37512;52.408;13.356;2024-03-08T19:40:55;19.40;;;10.80;;
45762;SDS011;37512;52.408;13.356;2024-03-08T19:44:58;22.90;;;12.68;;
45762;SDS011;37512;52.408;13.356;2024-03-08T19:49:00;23.45;;;12.00;;
45762;SDS011;37512;52.408;13.356;2024-03-08T19:53:02;20.85;;;13.18;;
45762;SDS011;37512;52.408;13.356;2024-03-08T19:57:09;22.52;;;12.38;;
45762;SDS011;37512;52.408;13.356;2024-03-08T20:01:11;23.33;;;13.02;;
45762;SDS011;37512;52.408;13.356;2024-03-08T20:05:16;25.92;;;13.80;;
45762;SDS011;37512;52.408;13.356;2024-03-08T20:09:22;25.08;;;13.80;;
45762;SDS011;37512;52.408;13.356;2024-03-08T20:13:26;25.50;;;13.88;;
45762;SDS011;37512;52.408;13.356;2024-03-08T20:17:27;24.20;;;13.40;;
45762;SDS011;37512;52.408;13.356;2024-03-08T20:21:30;18.65;;;11.73;;
45762;SDS011;37512;52.408;13.356;2024-03-08T20:25:31;27.67;;;13.65;;
45762;SDS011;37512;52.408;13.356;2024-03-08T20:29:37;29.00;;;13.55;;
45762;SDS011;37512;52.408;13.356;2024-03-08T20:33:40;25.70;;;14.55;;
45762;SDS011;37512;52.408;13.356;2024-03-08T20:37:44;23.35;;;12.82;;
45762;SDS011;37512;52.408;13.356;2024-03-08T20:41:46;22.25;;;12.05;;
45762;SDS011;37512;52.408;13.356;2024-03-08T20:45:47;25.75;;;13.93;;
45762;SDS011;37512;52.408;13.356;2024-03-08T20:49:51;21.65;;;12.75;;
45762;SDS011;37512;52.408;13.356;2024-03-08T20:53:53;22.45;;;13.05;;
45762;SDS011;37512;52.408;13.356;2024-03-08T20:57:56;25.65;;;13.23;;
45762;SDS011;37512;52.408;13.356;2024-03-08T21:02:01;25.40;;;13.68;;
45762;SDS011;37512;52.408;13.356;2024-03-08T21:06:02;26.35;;;12.80;;
45762;SDS011;37512;52.408;13.356;2024-03-08T21:10:07;26.15;;;13.80;;
45762;SDS011;37512;52.408;13.356;2024-03-08T21:14:11;26.95;;;14.45;;
45762;SDS011;37512;52.408;13.356;2024-03-08T21:18:13;20.95;;;10.63;;
45762;SDS011;37512;52.408;13.356;2024-03-08T21:22:15;26.67;;;14.40;;
45762;SDS011;37512;52.408;13.356;2024-03-08T21:26:17;25.10;;;14.27;;
45762;SDS011;37512;52.408;13.356;2024-03-08T21:30:20;24.42;;;14.35;;
45762;SDS011;37512;52.408;13.356;2024-03-08T21:34:28;27.05;;;14.05;;
45762;SDS011;37512;52.408;13.356;2024-03-08T21:38:30;33.03;;;15.27;;
45762;SDS011;37512;52.408;13.356;2024-03-08T21:42:32;24.98;;;13.63;;
45762;SDS011;37512;52.408;13.356;2024-03-08T21:46:34;23.92;;;13.77;;
45762;SDS011;37512;52.408;13.356;2024-03-08T21:50:36;27.40;;;14.85;;
45762;SDS011;37512;52.408;13.356;2024-03-08T21:54:40;27.02;;;14.43;;
45762;SDS011;37512;52.408;13.356;2024-03-08T21:58:41;26.92;;;12.82;;
45762;SDS011;37512;52.408;13.356;2024-03-08T22:02:47;27.27;;;14.55;;
45762;SDS011;37512;52.408;13.356;2024-03-08T22:06:49;26.33;;;14.45;;
45762;SDS011;37512;52.408;13.356;2024-03-08T22:10:51;27.13;;;13.80;;
45762;SDS011;37512;52.408;13.356;2024-03-08T22:14:53;31.58;;;15.15;;
45762;SDS011;37512;52.408;13.356;2024-03-08T22:18:55;23.58;;;12.95;;
45762;SDS011;37512;52.408;13.356;2024-03-08T22:22:57;27.25;;;14.02;;
45762;SDS011;37512;52.408;13.356;2024-03-08T22:26:59;27.80;;;14.90;;
45762;SDS011;37512;52.408;13.356;2024-03-08T22:31:01;24.88;;;13.50;;
45762;SDS011;37512;52.408;13.356;2024-03-08T22:35:08;19.73;;;10.68;;
45762;SDS011;37512;52.408;13.356;2024-03-08T22:39:11;29.13;;;14.75;;
45762;SDS011;37512;52.408;13.356;2024-03-08T22:43:13;25.38;;;14.45;;
45762;SDS011;37512;52.408;13.356;2024-03-08T22:47:15;28.73;;;16.08;;
45762;SDS011;37512;52.408;13.356;2024-03-08T22:51:16;33.58;;;15.93;;
45762;SDS011;37512;52.408;13.356;2024-03-08T22:55:25;25.15;;;13.93;;
45762;SDS011;37512;52.408;13.356;2024-03-08T22:59:27;29.08;;;15.57;;
45762;SDS011;37512;52.408;13.356;2024-03-08T23:03:29;25.00;;;14.30;;
45762;SDS011;37512;52.408;13.356;2024-03-08T23:07:35;31.15;;;15.23;;
45762;SDS011;37512;52.408;13.356;2024-03-08T23:11:39;30.83;;;15.73;;
45762;SDS011;37512;52.408;13.356;2024-03-08T23:15:42;28.92;;;15.52;;
45762;SDS011;37512;52.408;13.356;2024-03-08T23:19:44;34.40;;;15.30;;
45762;SDS011;37512;52.408;13.356;2024-03-08T23:23:48;36.42;;;16.85;;
45762;SDS011;37512;52.408;13.356;2024-03-08T23:31:52;24.88;;;15.07;;
45762;SDS011;37512;52.408;13.356;2024-03-08T23:35:56;36.97;;;16.50;;
45762;SDS011;37512;52.408;13.356;2024-03-08T23:39:57;32.70;;;16.25;;
45762;SDS011;37512;52.408;13.356;2024-03-08T23:43:59;30.85;;;17.98;;